sensor_id;sensor_type;location;lat;lon;timestamp;P1;durP1;ratioP1;P2;durP2;ratioP2
52468;SDS011;38381;53.688;10.776;2023-03-11T00:01:23;7.72;;;6.82;;
52468;SDS011;38381;53.688;10.776;2023-03-11T00:06:24;7.90;;;7.13;;
52468;SDS011;38381;53.688;10.776;2023-03-11T00:11:24;9.95;;;7.93;;
52468;SDS011;38381;53.688;10.776;2023-03-11T00:16:25;8.43;;;7.53;;
52468;SDS011;38381;53.688;10.776;2023-03-11T00:21:25;8.90;;;7.85;;
52468;SDS011;38381;53.688;10.776;2023-03-11T00:26:26;7.72;;;6.85;;
52468;SDS011;38381;53.688;10.776;2023-03-11T00:31:26;8.20;;;7.20;;
52468;SDS011;38381;53.688;10.776;2023-03-11T00:36:31;9.00;;;8.07;;
52468;SDS011;38381;53.688;10.776;2023-03-11T00:41:35;8.25;;;6.88;;
52468;SDS011;38381;53.688;10.776;2023-03-11T00:46:36;7.32;;;6.63;;
52468;SDS011;38381;53.688;10.776;2023-03-11T00:51:36;10.73;;;8.73;;
52468;SDS011;38381;53.688;10.776;2023-03-11T00:56:36;10.15;;;8.65;;
52468;SDS011;38381;53.688;10.776;2023-03-11T01:01:37;10.63;;;8.32;;
52468;SDS011;38381;53.688;10.776;2023-03-11T01:06:38;10.48;;;9.27;;
52468;SDS011;38381;53.688;10.776;2023-03-11T01:11:38;10.90;;;9.70;;
52468;SDS011;38381;53.688;10.776;2023-03-11T01:16:38;9.82;;;8.93;;
52468;SDS011;38381;53.688;10.776;2023-03-11T01:21:39;11.93;;;8.95;;
52468;SDS011;38381;53.688;10.776;2023-03-11T01:26:39;10.57;;;9.10;;
52468;SDS011;38381;53.688;10.776;2023-03-11T01:31:40;13.07;;;8.52;;
52468;SDS011;38381;53.688;10.776;2023-03-11T01:36:40;9.90;;;8.68;;
52468;SDS011;38381;53.688;10.776;2023-03-11T01:41:41;12.05;;;8.85;;
52468;SDS011;38381;53.688;10.776;2023-03-11T01:51:52;8.82;;;7.93;;
52468;SDS011;38381;53.688;10.776;2023-03-11T01:56:56;9.45;;;8.43;;
52468;SDS011;38381;53.688;10.776;2023-03-11T02:07:11;8.90;;;8.00;;
52468;SDS011;38381;53.688;10.776;2023-03-11T02:12:13;8.82;;;7.20;;
52468;SDS011;38381;53.688;10.776;2023-03-11T02:17:14;9.10;;;8.00;;
52468;SDS011;38381;53.688;10.776;2023-03-11T02:22:15;9.60;;;8.68;;
52468;SDS011;38381;53.688;10.776;2023-03-11T02:27:16;9.10;;;8.20;;
52468;SDS011;38381;53.688;10.776;2023-03-11T02:32:19;9.50;;;8.50;;
52468;SDS011;38381;53.688;10.776;2023-03-11T02:37:20;10.95;;;7.93;;
52468;SDS011;38381;53.688;10.776;2023-03-11T02:42:25;10.98;;;8.80;;
52468;SDS011;38381;53.688;10.776;2023-03-11T02:47:29;9.38;;;8.38;;
52468;SDS011;38381;53.688;10.776;2023-03-11T02:52:31;10.50;;;8.57;;
52468;SDS011;38381;53.688;10.776;2023-03-11T02:57:33;10.38;;;8.93;;
52468;SDS011;38381;53.688;10.776;2023-03-11T03:02:33;9.52;;;8.55;;
52468;SDS011;38381;53.688;10.776;2023-03-11T03:07:34;10.13;;;8.98;;
52468;SDS011;38381;53.688;10.776;2023-03-11T03:12:34;9.50;;;8.68;;
52468;SDS011;38381;53.688;10.776;2023-03-11T03:17:35;9.63;;;8.07;;
52468;SDS011;38381;53.688;10.776;2023-03-11T03:22:36;9.75;;;8.40;;
52468;SDS011;38381;53.688;10.776;2023-03-11T03:27:37;10.93;;;8.37;;
52468;SDS011;38381;53.688;10.776;2023-03-11T03:32:38;9.88;;;8.88;;
52468;SDS011;38381;53.688;10.776;2023-03-11T03:37:39;10.50;;;9.38;;
52468;SDS011;38381;53.688;10.776;2023-03-11T03:42:39;9.20;;;8.25;;
52468;SDS011;38381;53.688;10.776;2023-03-11T03:47:39;10.25;;;8.80;;
52468;SDS011;38381;53.688;10.776;2023-03-11T03:52:40;9.57;;;8.57;;
52468;SDS011;38381;53.688;10.776;2023-03-11T03:57:40;10.43;;;9.00;;
52468;SDS011;38381;53.688;10.776;2023-03-11T04:02:41;10.02;;;8.70;;
52468;SDS011;38381;53.688;10.776;2023-03-11T04:07:41;9.18;;;8.27;;
52468;SDS011;38381;53.688;10.776;2023-03-11T04:12:42;9.98;;;9.00;;
52468;SDS011;38381;53.688;10.776;2023-03-11T04:17:42;12.63;;;10.10;;
52468;SDS011;38381;53.688;10.776;2023-03-11T04:22:43;12.35;;;9.52;;
52468;SDS011;38381;53.688;10.776;2023-03-11T04:27:43;10.60;;;9.50;;
52468;SDS011;38381;53.688;10.776;2023-03-11T04:32:45;10.27;;;8.93;;
52468;SDS011;38381;53.688;10.776;2023-03-11T04:37:45;13.13;;;9.80;;
52468;SDS011;38381;53.688;10.776;2023-03-11T04:42:46;11.05;;;9.95;;
52468;SDS011;38381;53.688;10.776;2023-03-11T04:47:46;11.88;;;10.52;;
52468;SDS011;38381;53.688;10.776;2023-03-11T04:52:48;11.77;;;9.77;;
52468;SDS011;38381;53.688;10.776;2023-03-11T04:57:48;13.18;;;10.93;;
52468;SDS011;38381;53.688;10.776;2023-03-11T05:02:49;13.13;;;10.75;;
52468;SDS011;38381;53.688;10.776;2023-03-11T05:07:49;13.05;;;11.75;;
52468;SDS011;38381;53.688;10.776;2023-03-11T05:12:50;10.63;;;9.52;;
52468;SDS011;38381;53.688;10.776;2023-03-11T05:17:51;10.77;;;9.68;;
52468;SDS011;38381;53.688;10.776;2023-03-11T05:22:51;11.02;;;9.98;;
52468;SDS011;38381;53.688;10.776;2023-03-11T05:27:51;13.07;;;9.85;;
52468;SDS011;38381;53.688;10.776;2023-03-11T05:32:52;10.63;;;9.63;;
52468;SDS011;38381;53.688;10.776;2023-03-11T05:37:53;11.70;;;10.50;;
52468;SDS011;38381;53.688;10.776;2023-03-11T05:42:54;11.27;;;10.07;;
52468;SDS011;38381;53.688;10.776;2023-03-11T05:47:54;11.13;;;10.02;;
52468;SDS011;38381;53.688;10.776;2023-03-11T05:52:55;11.57;;;9.73;;
52468;SDS011;38381;53.688;10.776;2023-03-11T05:57:55;11.98;;;10.75;;
52468;SDS011;38381;53.688;10.776;2023-03-11T06:02:55;11.73;;;10.38;;
52468;SDS011;38381;53.688;10.776;2023-03-11T06:07:56;12.75;;;10.88;;
52468;SDS011;38381;53.688;10.776;2023-03-11T06:12:56;13.85;;;11.38;;
52468;SDS011;38381;53.688;10.776;2023-03-11T06:17:57;12.32;;;10.43;;
52468;SDS011;38381;53.688;10.776;2023-03-11T06:22:58;13.13;;;10.82;;
52468;SDS011;38381;53.688;10.776;2023-03-11T06:27:58;11.05;;;9.57;;
52468;SDS011;38381;53.688;10.776;2023-03-11T06:32:59;17.30;;;11.77;;
52468;SDS011;38381;53.688;10.776;2023-03-11T06:37:59;11.38;;;10.20;;
52468;SDS011;38381;53.688;10.776;2023-03-11T06:43:00;12.05;;;10.85;;
52468;SDS011;38381;53.688;10.776;2023-03-11T06:48:00;11.93;;;10.07;;
52468;SDS011;38381;53.688;10.776;2023-03-11T06:53:01;12.95;;;10.35;;
52468;SDS011;38381;53.688;10.776;2023-03-11T06:58:02;13.18;;;10.40;;
52468;SDS011;38381;53.688;10.776;2023-03-11T07:03:02;11.18;;;8.85;;
52468;SDS011;38381;53.688;10.776;2023-03-11T07:08:02;10.63;;;8.88;;
52468;SDS011;38381;53.688;10.776;2023-03-11T07:13:03;13.52;;;10.18;;
52468;SDS011;38381;53.688;10.776;2023-03-11T07:18:03;9.32;;;8.43;;
52468;SDS011;38381;53.688;10.776;2023-03-11T07:23:04;10.57;;;9.38;;
52468;SDS011;38381;53.688;10.776;2023-03-11T07:28:04;11.77;;;9.65;;
52468;SDS011;38381;53.688;10.776;2023-03-11T07:33:05;9.60;;;8.55;;
52468;SDS011;38381;53.688;10.776;2023-03-11T07:38:05;12.02;;;8.75;;
52468;SDS011;38381;53.688;10.776;2023-03-11T07:43:06;10.18;;;8.60;;
52468;SDS011;38381;53.688;10.776;2023-03-11T07:48:07;11.02;;;9.75;;
52468;SDS011;38381;53.688;10.776;2023-03-11T07:53:07;10.27;;;9.05;;
52468;SDS011;38381;53.688;10.776;2023-03-11T07:58:08;11.18;;;9.40;;
52468;SDS011;38381;53.688;10.776;2023-03-11T08:03:08;11.18;;;10.07;;
52468;SDS011;38381;53.688;10.776;2023-03-11T08:08:08;8.65;;;7.75;;
52468;SDS011;38381;53.688;10.776;2023-03-11T08:13:09;9.43;;;8.38;;
52468;SDS011;38381;53.688;10.776;2023-03-11T08:18:09;9.73;;;8.38;;
52468;SDS011;38381;53.688;10.776;2023-03-11T08:23:10;10.73;;;8.23;;
52468;SDS011;38381;53.688;10.776;2023-03-11T08:28:11;10.05;;;8.73;;
52468;SDS011;38381;53.688;10.776;2023-03-11T08:33:11;9.85;;;7.32;;
52468;SDS011;38381;53.688;10.776;2023-03-11T08:38:12;9.07;;;7.43;;
52468;SDS011;38381;53.688;10.776;2023-03-11T08:43:13;8.05;;;7.25;;
52468;SDS011;38381;53.688;10.776;2023-03-11T08:48:14;9.65;;;6.78;;
52468;SDS011;38381;53.688;10.776;2023-03-11T08:53:14;7.70;;;6.90;;
52468;SDS011;38381;53.688;10.776;2023-03-11T08:58:14;7.93;;;6.60;;
52468;SDS011;38381;53.688;10.776;2023-03-11T09:03:15;8.20;;;7.15;;
52468;SDS011;38381;53.688;10.776;2023-03-11T09:08:15;6.82;;;6.13;;
52468;SDS011;38381;53.688;10.776;2023-03-11T09:13:16;6.55;;;5.45;;
52468;SDS011;38381;53.688;10.776;2023-03-11T09:18:16;6.40;;;5.80;;
52468;SDS011;38381;53.688;10.776;2023-03-11T09:23:17;6.28;;;5.68;;
52468;SDS011;38381;53.688;10.776;2023-03-11T09:28:18;6.38;;;5.68;;
52468;SDS011;38381;53.688;10.776;2023-03-11T09:33:18;8.77;;;5.40;;
52468;SDS011;38381;53.688;10.776;2023-03-11T09:38:18;6.25;;;4.82;;
52468;SDS011;38381;53.688;10.776;2023-03-11T09:43:23;5.53;;;4.68;;
52468;SDS011;38381;53.688;10.776;2023-03-11T09:53:40;6.13;;;5.55;;
52468;SDS011;38381;53.688;10.776;2023-03-11T09:58:43;6.95;;;4.20;;
52468;SDS011;38381;53.688;10.776;2023-03-11T10:03:46;4.65;;;4.00;;
52468;SDS011;38381;53.688;10.776;2023-03-11T10:08:59;4.78;;;4.05;;
52468;SDS011;38381;53.688;10.776;2023-03-11T10:19:23;4.75;;;4.25;;
52468;SDS011;38381;53.688;10.776;2023-03-11T10:24:49;4.25;;;3.80;;
52468;SDS011;38381;53.688;10.776;2023-03-11T10:30:02;4.43;;;3.72;;
52468;SDS011;38381;53.688;10.776;2023-03-11T10:35:23;5.13;;;3.65;;
52468;SDS011;38381;53.688;10.776;2023-03-11T10:40:37;4.25;;;3.75;;
52468;SDS011;38381;53.688;10.776;2023-03-11T10:45:40;4.53;;;3.20;;
52468;SDS011;38381;53.688;10.776;2023-03-11T10:51:30;5.07;;;3.45;;
52468;SDS011;38381;53.688;10.776;2023-03-11T10:56:18;4.32;;;3.60;;
52468;SDS011;38381;53.688;10.776;2023-03-11T11:01:33;4.00;;;3.35;;
52468;SDS011;38381;53.688;10.776;2023-03-11T11:06:34;4.50;;;3.22;;
52468;SDS011;38381;53.688;10.776;2023-03-11T11:11:35;4.00;;;3.20;;
52468;SDS011;38381;53.688;10.776;2023-03-11T11:16:38;4.03;;;3.03;;
52468;SDS011;38381;53.688;10.776;2023-03-11T11:21:41;3.80;;;3.20;;
52468;SDS011;38381;53.688;10.776;2023-03-11T11:37:17;3.70;;;3.28;;
52468;SDS011;38381;53.688;10.776;2023-03-11T11:42:20;3.50;;;3.20;;
52468;SDS011;38381;53.688;10.776;2023-03-11T11:47:23;4.60;;;3.38;;
52468;SDS011;38381;53.688;10.776;2023-03-11T11:52:34;4.75;;;4.05;;
52468;SDS011;38381;53.688;10.776;2023-03-11T11:57:39;5.68;;;3.40;;
52468;SDS011;38381;53.688;10.776;2023-03-11T12:18:37;4.72;;;2.70;;
52468;SDS011;38381;53.688;10.776;2023-03-11T12:23:55;2.47;;;2.25;;
52468;SDS011;38381;53.688;10.776;2023-03-11T12:29:47;2.60;;;2.10;;
52468;SDS011;38381;53.688;10.776;2023-03-11T12:34:55;2.60;;;2.38;;
52468;SDS011;38381;53.688;10.776;2023-03-11T12:40:22;6.47;;;2.55;;
52468;SDS011;38381;53.688;10.776;2023-03-11T12:45:49;2.67;;;2.10;;
52468;SDS011;38381;53.688;10.776;2023-03-11T12:50:51;2.65;;;2.45;;
52468;SDS011;38381;53.688;10.776;2023-03-11T12:55:55;2.30;;;2.10;;
52468;SDS011;38381;53.688;10.776;2023-03-11T13:01:12;6.78;;;2.28;;
52468;SDS011;38381;53.688;10.776;2023-03-11T13:11:54;2.80;;;1.98;;
52468;SDS011;38381;53.688;10.776;2023-03-11T13:16:55;4.90;;;2.50;;
52468;SDS011;38381;53.688;10.776;2023-03-11T13:28:02;2.75;;;2.50;;
52468;SDS011;38381;53.688;10.776;2023-03-11T13:33:28;5.55;;;3.83;;
52468;SDS011;38381;53.688;10.776;2023-03-11T13:43:46;3.28;;;2.78;;
52468;SDS011;38381;53.688;10.776;2023-03-11T13:48:49;2.58;;;1.80;;
52468;SDS011;38381;53.688;10.776;2023-03-11T14:04:24;2.83;;;2.00;;
52468;SDS011;38381;53.688;10.776;2023-03-11T14:09:27;2.58;;;1.65;;
52468;SDS011;38381;53.688;10.776;2023-03-11T14:14:33;2.25;;;2.00;;
52468;SDS011;38381;53.688;10.776;2023-03-11T14:20:03;5.30;;;1.80;;
52468;SDS011;38381;53.688;10.776;2023-03-11T14:25:26;4.70;;;2.15;;
52468;SDS011;38381;53.688;10.776;2023-03-11T14:30:31;6.28;;;1.85;;
52468;SDS011;38381;53.688;10.776;2023-03-11T14:35:33;1.58;;;1.48;;
52468;SDS011;38381;53.688;10.776;2023-03-11T14:40:34;6.50;;;2.35;;
52468;SDS011;38381;53.688;10.776;2023-03-11T14:45:41;1.92;;;1.58;;
52468;SDS011;38381;53.688;10.776;2023-03-11T14:50:42;2.83;;;1.90;;
52468;SDS011;38381;53.688;10.776;2023-03-11T14:55:49;1.80;;;1.70;;
52468;SDS011;38381;53.688;10.776;2023-03-11T15:06:19;4.03;;;1.80;;
52468;SDS011;38381;53.688;10.776;2023-03-11T15:11:24;4.60;;;1.80;;
52468;SDS011;38381;53.688;10.776;2023-03-11T15:16:31;3.25;;;1.77;;
52468;SDS011;38381;53.688;10.776;2023-03-11T15:21:34;2.25;;;1.92;;
52468;SDS011;38381;53.688;10.776;2023-03-11T15:26:35;1.60;;;1.50;;
52468;SDS011;38381;53.688;10.776;2023-03-11T15:31:37;4.55;;;2.00;;
52468;SDS011;38381;53.688;10.776;2023-03-11T15:36:42;3.63;;;1.50;;
52468;SDS011;38381;53.688;10.776;2023-03-11T15:41:45;4.38;;;2.58;;
52468;SDS011;38381;53.688;10.776;2023-03-11T15:46:56;2.05;;;1.75;;
52468;SDS011;38381;53.688;10.776;2023-03-11T15:51:59;1.73;;;1.50;;
52468;SDS011;38381;53.688;10.776;2023-03-11T15:57:00;1.65;;;1.55;;
52468;SDS011;38381;53.688;10.776;2023-03-11T16:02:05;3.65;;;1.80;;
52468;SDS011;38381;53.688;10.776;2023-03-11T16:07:20;4.43;;;1.73;;
52468;SDS011;38381;53.688;10.776;2023-03-11T16:12:21;4.07;;;1.77;;
52468;SDS011;38381;53.688;10.776;2023-03-11T16:17:22;2.20;;;1.87;;
52468;SDS011;38381;53.688;10.776;2023-03-11T16:22:26;2.00;;;1.50;;
52468;SDS011;38381;53.688;10.776;2023-03-11T16:27:34;3.90;;;2.42;;
52468;SDS011;38381;53.688;10.776;2023-03-11T16:32:34;3.50;;;2.35;;
52468;SDS011;38381;53.688;10.776;2023-03-11T16:37:35;2.55;;;1.83;;
52468;SDS011;38381;53.688;10.776;2023-03-11T16:42:35;2.03;;;1.80;;
52468;SDS011;38381;53.688;10.776;2023-03-11T16:47:35;2.20;;;1.65;;
52468;SDS011;38381;53.688;10.776;2023-03-11T16:52:36;3.35;;;1.90;;
52468;SDS011;38381;53.688;10.776;2023-03-11T16:57:37;2.03;;;1.80;;
52468;SDS011;38381;53.688;10.776;2023-03-11T17:02:38;2.78;;;2.00;;
52468;SDS011;38381;53.688;10.776;2023-03-11T17:07:39;2.58;;;2.38;;
52468;SDS011;38381;53.688;10.776;2023-03-11T17:12:39;3.80;;;2.10;;
52468;SDS011;38381;53.688;10.776;2023-03-11T17:17:39;3.22;;;2.00;;
52468;SDS011;38381;53.688;10.776;2023-03-11T17:22:40;2.33;;;1.80;;
52468;SDS011;38381;53.688;10.776;2023-03-11T17:27:40;2.30;;;2.10;;
52468;SDS011;38381;53.688;10.776;2023-03-11T17:32:41;2.83;;;2.53;;
52468;SDS011;38381;53.688;10.776;2023-03-11T17:37:41;3.83;;;3.22;;
52468;SDS011;38381;53.688;10.776;2023-03-11T17:42:41;4.60;;;3.03;;
52468;SDS011;38381;53.688;10.776;2023-03-11T17:47:42;6.35;;;3.88;;
52468;SDS011;38381;53.688;10.776;2023-03-11T17:52:44;5.80;;;3.88;;
52468;SDS011;38381;53.688;10.776;2023-03-11T17:57:45;3.80;;;3.50;;
52468;SDS011;38381;53.688;10.776;2023-03-11T18:02:46;4.60;;;3.72;;
52468;SDS011;38381;53.688;10.776;2023-03-11T18:07:46;3.90;;;3.42;;
52468;SDS011;38381;53.688;10.776;2023-03-11T18:12:46;5.40;;;4.00;;
52468;SDS011;38381;53.688;10.776;2023-03-11T18:17:47;4.13;;;3.60;;
52468;SDS011;38381;53.688;10.776;2023-03-11T18:22:48;8.07;;;5.32;;
52468;SDS011;38381;53.688;10.776;2023-03-11T18:27:48;3.58;;;3.22;;
52468;SDS011;38381;53.688;10.776;2023-03-11T18:32:49;3.67;;;3.35;;
52468;SDS011;38381;53.688;10.776;2023-03-11T18:37:49;6.75;;;3.40;;
52468;SDS011;38381;53.688;10.776;2023-03-11T18:42:53;3.80;;;3.40;;
52468;SDS011;38381;53.688;10.776;2023-03-11T18:47:53;4.40;;;3.17;;
52468;SDS011;38381;53.688;10.776;2023-03-11T18:52:54;8.88;;;3.67;;
52468;SDS011;38381;53.688;10.776;2023-03-11T18:57:54;4.40;;;3.73;;
52468;SDS011;38381;53.688;10.776;2023-03-11T19:02:54;4.05;;;3.58;;
52468;SDS011;38381;53.688;10.776;2023-03-11T19:07:55;3.72;;;3.17;;
52468;SDS011;38381;53.688;10.776;2023-03-11T19:12:56;6.00;;;3.30;;
52468;SDS011;38381;53.688;10.776;2023-03-11T19:17:56;4.53;;;4.20;;
52468;SDS011;38381;53.688;10.776;2023-03-11T19:22:57;4.10;;;3.70;;
52468;SDS011;38381;53.688;10.776;2023-03-11T19:27:57;4.55;;;3.83;;
52468;SDS011;38381;53.688;10.776;2023-03-11T19:32:57;4.05;;;3.65;;
52468;SDS011;38381;53.688;10.776;2023-03-11T19:37:58;5.38;;;3.38;;
52468;SDS011;38381;53.688;10.776;2023-03-11T19:42:58;8.13;;;4.63;;
52468;SDS011;38381;53.688;10.776;2023-03-11T19:47:59;5.60;;;3.22;;
52468;SDS011;38381;53.688;10.776;2023-03-11T19:52:59;3.95;;;3.55;;
52468;SDS011;38381;53.688;10.776;2023-03-11T19:58:00;6.05;;;4.47;;
52468;SDS011;38381;53.688;10.776;2023-03-11T20:03:00;4.38;;;3.35;;
52468;SDS011;38381;53.688;10.776;2023-03-11T20:08:02;4.55;;;3.55;;
52468;SDS011;38381;53.688;10.776;2023-03-11T20:13:03;4.35;;;3.47;;
52468;SDS011;38381;53.688;10.776;2023-03-11T20:18:04;4.28;;;3.88;;
52468;SDS011;38381;53.688;10.776;2023-03-11T20:23:05;3.45;;;3.15;;
52468;SDS011;38381;53.688;10.776;2023-03-11T20:28:05;5.05;;;3.00;;
52468;SDS011;38381;53.688;10.776;2023-03-11T20:33:07;3.30;;;3.00;;
52468;SDS011;38381;53.688;10.776;2023-03-11T20:38:07;3.73;;;3.43;;
52468;SDS011;38381;53.688;10.776;2023-03-11T20:43:09;3.53;;;3.22;;
52468;SDS011;38381;53.688;10.776;2023-03-11T20:48:09;3.30;;;3.00;;
52468;SDS011;38381;53.688;10.776;2023-03-11T20:53:10;3.80;;;3.50;;
52468;SDS011;38381;53.688;10.776;2023-03-11T20:58:10;5.22;;;3.47;;
52468;SDS011;38381;53.688;10.776;2023-03-11T21:03:10;3.53;;;3.22;;
52468;SDS011;38381;53.688;10.776;2023-03-11T21:08:11;5.50;;;4.40;;
52468;SDS011;38381;53.688;10.776;2023-03-11T21:13:11;4.30;;;3.65;;
52468;SDS011;38381;53.688;10.776;2023-03-11T21:18:12;5.72;;;3.17;;
52468;SDS011;38381;53.688;10.776;2023-03-11T21:23:12;5.32;;;3.60;;
52468;SDS011;38381;53.688;10.776;2023-03-11T21:28:13;4.97;;;3.88;;
52468;SDS011;38381;53.688;10.776;2023-03-11T21:33:13;5.93;;;3.80;;
52468;SDS011;38381;53.688;10.776;2023-03-11T21:38:14;5.43;;;4.28;;
52468;SDS011;38381;53.688;10.776;2023-03-11T21:43:16;6.70;;;4.38;;
52468;SDS011;38381;53.688;10.776;2023-03-11T21:48:17;5.13;;;4.72;;
52468;SDS011;38381;53.688;10.776;2023-03-11T21:53:17;5.07;;;3.70;;
52468;SDS011;38381;53.688;10.776;2023-03-11T21:58:18;6.55;;;4.15;;
52468;SDS011;38381;53.688;10.776;2023-03-11T22:03:19;5.07;;;4.57;;
52468;SDS011;38381;53.688;10.776;2023-03-11T22:08:19;7.15;;;4.85;;
52468;SDS011;38381;53.688;10.776;2023-03-11T22:13:20;4.95;;;4.45;;
52468;SDS011;38381;53.688;10.776;2023-03-11T22:18:21;4.50;;;3.83;;
52468;SDS011;38381;53.688;10.776;2023-03-11T22:23:21;4.47;;;4.18;;
52468;SDS011;38381;53.688;10.776;2023-03-11T22:28:22;4.88;;;4.45;;
52468;SDS011;38381;53.688;10.776;2023-03-11T22:33:23;6.18;;;4.03;;
52468;SDS011;38381;53.688;10.776;2023-03-11T22:38:24;5.15;;;3.92;;
52468;SDS011;38381;53.688;10.776;2023-03-11T22:43:24;4.30;;;3.90;;
52468;SDS011;38381;53.688;10.776;2023-03-11T22:48:25;6.65;;;5.57;;
52468;SDS011;38381;53.688;10.776;2023-03-11T22:53:27;4.38;;;3.97;;
52468;SDS011;38381;53.688;10.776;2023-03-11T22:58:28;7.07;;;5.75;;
52468;SDS011;38381;53.688;10.776;2023-03-11T23:03:29;4.78;;;4.25;;
52468;SDS011;38381;53.688;10.776;2023-03-11T23:08:33;8.00;;;5.35;;
52468;SDS011;38381;53.688;10.776;2023-03-11T23:13:34;4.72;;;4.32;;
52468;SDS011;38381;53.688;10.776;2023-03-11T23:18:35;4.47;;;4.07;;
52468;SDS011;38381;53.688;10.776;2023-03-11T23:23:36;5.32;;;4.82;;
52468;SDS011;38381;53.688;10.776;2023-03-11T23:28:37;6.05;;;4.78;;
52468;SDS011;38381;53.688;10.776;2023-03-11T23:33:40;4.80;;;4.25;;
52468;SDS011;38381;53.688;10.776;2023-03-11T23:38:41;6.03;;;4.25;;
52468;SDS011;38381;53.688;10.776;2023-03-11T23:43:42;16.95;;;5.15;;
52468;SDS011;38381;53.688;10.776;2023-03-11T23:48:42;4.47;;;4.10;;
52468;SDS011;38381;53.688;10.776;2023-03-11T23:53:43;7.38;;;4.50;;
52468;SDS011;38381;53.688;10.776;2023-03-11T23:58:43;4.40;;;4.00;;
